createdAt,value
2022-10-11T08:29:32.960Z,14.30
2022-10-11T08:31:36.890Z,14.30
2022-10-11T08:33:39.859Z,13.92
2022-10-11T08:35:42.295Z,14.16
2022-10-11T08:37:44.844Z,14.38
2022-10-11T08:39:47.352Z,14.55
2022-10-11T08:41:56.962Z,14.49
2022-10-11T08:44:20.885Z,14.49
2022-10-11T08:46:29.151Z,14.45
2022-10-11T08:48:49.471Z,14.46
2022-10-11T08:50:54.405Z,14.76
2022-10-11T08:53:02.598Z,15.11
2022-10-11T08:55:08.337Z,15.34
2022-10-11T08:57:25.981Z,15.48
2022-10-11T08:59:31.022Z,15.52
2022-10-11T09:01:33.399Z,15.75
2022-10-11T09:03:42.582Z,15.88
2022-10-11T09:05:58.211Z,15.99
2022-10-11T09:08:19.591Z,15.93
2022-10-11T09:10:55.014Z,16.14
2022-10-11T09:13:31.482Z,16.40
2022-10-11T09:15:56.633Z,16.47
2022-10-11T09:18:05.029Z,16.34
2022-10-11T09:20:10.223Z,16.63
2022-10-11T09:22:30.371Z,16.75
2022-10-11T09:25:05.796Z,16.70
2022-10-11T09:27:50.319Z,16.81
2022-10-11T09:30:05.049Z,16.98
2022-10-11T09:32:15.361Z,17.20
2022-10-11T09:34:18.696Z,17.22
2022-10-11T09:36:23.919Z,17.07
2022-10-11T09:39:06.627Z,16.97
2022-10-11T09:41:24.890Z,17.03
2022-10-11T09:43:27.696Z,17.15
2022-10-11T09:45:30.000Z,17.05
2022-10-11T09:47:33.147Z,17.19
2022-10-11T09:49:42.666Z,17.33
2022-10-11T09:51:55.642Z,17.44
2022-10-11T09:53:59.510Z,17.60
2022-10-11T09:56:04.579Z,17.71
2022-10-11T09:58:25.422Z,17.71
2022-10-11T10:00:33.582Z,17.80
2022-10-11T10:02:44.363Z,17.88
2022-10-11T10:04:55.828Z,18.15
2022-10-11T10:07:12.918Z,18.40
2022-10-11T10:09:24.333Z,18.46
2022-10-11T10:11:37.249Z,18.39
2022-10-11T10:13:53.540Z,18.19
2022-10-11T10:16:01.365Z,18.32
2022-10-11T10:18:10.552Z,18.64
2022-10-11T10:20:31.685Z,18.85
2022-10-11T10:22:35.873Z,18.85
2022-10-11T10:24:41.344Z,19.41
2022-10-11T10:27:06.319Z,19.75
2022-10-11T10:29:08.743Z,20.03
2022-10-11T10:31:23.114Z,20.47
2022-10-11T10:33:30.126Z,20.43
2022-10-11T10:35:48.615Z,19.56
2022-10-11T10:37:50.776Z,19.37
2022-10-11T10:40:01.973Z,19.22
2022-10-11T10:45:59.338Z,19.56
2022-10-11T10:48:07.849Z,19.53
2022-10-11T10:50:21.712Z,19.96
2022-10-11T10:52:47.667Z,20.35
2022-10-11T10:55:22.936Z,20.35
2022-10-11T10:57:40.269Z,20.73
2022-10-11T11:00:10.405Z,20.99
2022-10-11T11:02:40.200Z,21.26
2022-10-11T11:07:28.685Z,21.42
2022-10-11T11:10:00.791Z,21.50
2022-10-11T11:12:14.260Z,21.67
2022-10-11T11:14:59.561Z,22.10
2022-10-11T11:17:05.992Z,22.71
2022-10-11T11:19:23.839Z,22.91
2022-10-11T11:21:39.107Z,23.80
2022-10-11T11:23:56.279Z,24.51
2022-10-11T11:26:10.887Z,24.00
2022-10-11T11:28:25.259Z,24.35
2022-10-11T11:30:36.884Z,24.48
2022-10-11T11:33:09.860Z,24.90
2022-10-11T11:35:24.270Z,25.20
2022-10-11T11:37:32.418Z,24.76
2022-10-11T11:39:43.407Z,24.73
2022-10-11T11:41:59.251Z,24.77
2022-10-11T11:44:28.101Z,23.43
2022-10-11T11:46:47.308Z,22.63
2022-10-11T11:48:52.261Z,23.18
2022-10-11T11:51:07.845Z,22.60
2022-10-11T11:53:25.198Z,23.67
2022-10-11T11:55:42.564Z,25.17
2022-10-11T11:57:59.435Z,26.03
2022-10-11T12:00:12.788Z,25.80
2022-10-11T12:02:38.495Z,25.75
2022-10-11T12:04:44.169Z,25.09
2022-10-11T12:07:15.474Z,24.97
2022-10-11T12:09:18.608Z,25.09
2022-10-11T12:11:26.112Z,25.17
2022-10-11T12:13:37.117Z,24.69
2022-10-11T12:15:39.870Z,24.94
2022-10-11T12:17:57.769Z,25.42
2022-10-11T12:20:25.764Z,24.45
2022-10-11T12:22:28.151Z,24.72
2022-10-11T12:24:55.259Z,24.17
2022-10-11T12:26:59.036Z,24.08
2022-10-11T12:29:42.301Z,22.43
2022-10-11T12:31:50.243Z,23.06
2022-10-11T12:34:00.471Z,22.46
2022-10-11T12:36:21.840Z,21.75
2022-10-11T12:38:33.137Z,21.17
2022-10-11T12:40:37.488Z,21.14
2022-10-11T12:43:11.593Z,20.93
2022-10-11T12:45:13.710Z,20.62
2022-10-11T12:47:42.997Z,20.18
2022-10-11T12:49:51.650Z,19.99
2022-10-11T12:51:53.841Z,20.00
2022-10-11T12:54:26.806Z,19.61
2022-10-11T12:56:56.778Z,19.89
2022-10-11T12:59:06.376Z,19.85
2022-10-11T13:01:13.880Z,20.02
2022-10-11T13:03:34.747Z,19.99
2022-10-11T13:05:49.709Z,20.03
2022-10-11T13:07:59.115Z,20.10
2022-10-11T13:10:05.022Z,20.09
2022-10-11T13:12:13.274Z,19.93
2022-10-11T13:14:21.818Z,19.87
2022-10-11T13:16:28.330Z,19.98
2022-10-11T13:18:30.613Z,20.17
2022-10-11T13:20:37.533Z,20.40
2022-10-11T13:22:44.271Z,20.19
2022-10-11T13:24:46.743Z,20.31
2022-10-11T13:26:51.437Z,20.34
2022-10-11T13:28:54.010Z,20.47
2022-10-11T13:30:58.568Z,20.23
2022-10-11T13:33:05.414Z,20.37
2022-10-11T13:35:21.044Z,20.51
2022-10-11T13:37:28.422Z,20.32
2022-10-11T13:39:36.342Z,20.43
2022-10-11T13:41:38.910Z,20.81
2022-10-11T13:43:41.360Z,21.09
2022-10-11T13:45:43.635Z,21.43
2022-10-11T13:47:48.304Z,21.37
2022-10-11T13:50:01.791Z,21.48
2022-10-11T13:52:19.426Z,21.55
2022-10-11T13:54:22.035Z,21.62
2022-10-11T13:56:25.320Z,21.37
2022-10-11T13:58:30.151Z,21.11
2022-10-11T14:00:36.783Z,21.05
2022-10-11T14:02:39.859Z,20.79
2022-10-11T14:04:42.129Z,20.67
2022-10-11T14:06:48.105Z,20.62
2022-10-11T14:08:56.199Z,20.58
2022-10-11T14:11:02.479Z,20.34
2022-10-11T14:13:34.454Z,20.22
2022-10-11T14:15:38.201Z,19.94
2022-10-11T14:17:43.750Z,19.93
2022-10-11T14:19:48.711Z,19.92
2022-10-11T14:21:53.043Z,19.88
2022-10-11T14:24:00.113Z,19.85
2022-10-11T14:26:02.541Z,19.71
2022-10-11T14:28:11.967Z,19.72
2022-10-11T14:30:25.771Z,19.56
2022-10-11T14:32:34.180Z,19.49
2022-10-11T14:34:37.062Z,19.48
2022-10-11T14:36:39.343Z,19.50
2022-10-11T14:38:41.792Z,19.43
2022-10-11T14:40:44.285Z,19.43
2022-10-11T14:42:47.201Z,19.37
2022-10-11T14:44:49.470Z,19.36
2022-10-11T14:46:54.521Z,19.30
2022-10-11T14:48:57.342Z,19.30
2022-10-11T14:51:01.340Z,19.21
2022-10-11T14:53:05.855Z,19.22
2022-10-11T14:55:08.068Z,19.26
2022-10-11T14:57:12.176Z,19.22
2022-10-11T14:59:17.654Z,19.21
2022-10-11T15:01:19.930Z,19.15
2022-10-11T15:03:22.224Z,19.15
2022-10-11T15:05:31.137Z,19.17
2022-10-11T15:07:35.834Z,19.13
2022-10-11T15:09:38.354Z,19.13
2022-10-11T15:11:40.810Z,18.99
2022-10-11T15:13:43.188Z,19.01
2022-10-11T15:15:45.567Z,19.00
2022-10-11T15:17:56.136Z,18.92
2022-10-11T15:19:58.625Z,18.88
2022-10-11T15:22:02.362Z,18.82
2022-10-11T15:24:04.991Z,18.71
2022-10-11T15:26:07.680Z,18.74
2022-10-11T15:28:35.936Z,18.75
2022-10-11T15:30:41.569Z,18.64
2022-10-11T15:32:47.673Z,18.64
2022-10-11T15:34:50.190Z,18.59
2022-10-11T15:36:52.805Z,18.55
2022-10-11T15:39:00.345Z,18.55
2022-10-11T15:41:03.404Z,18.56
2022-10-11T15:43:05.994Z,18.64
2022-10-11T15:45:11.232Z,18.55
2022-10-11T15:47:17.070Z,18.67
2022-10-11T15:49:19.678Z,18.64
2022-10-11T15:51:22.076Z,18.64
2022-10-11T15:53:28.722Z,18.59
2022-10-11T15:55:32.809Z,18.66
2022-10-11T15:57:35.056Z,18.71
2022-10-11T15:59:37.444Z,18.66
2022-10-11T16:01:40.112Z,18.60
2022-10-11T16:03:43.965Z,18.59
2022-10-11T16:05:46.390Z,18.61
2022-10-11T16:07:48.754Z,18.58
2022-10-11T16:09:51.314Z,18.55
2022-10-11T16:11:53.641Z,18.56
2022-10-11T16:13:55.845Z,18.50
2022-10-11T16:16:04.647Z,18.63
2022-10-11T16:18:13.204Z,18.55
2022-10-11T16:20:18.644Z,18.48
2022-10-11T16:22:22.233Z,18.42
2022-10-11T16:24:24.481Z,18.46
2022-10-11T16:26:29.284Z,18.48
2022-10-11T16:28:32.601Z,18.36
2022-10-11T16:30:39.543Z,18.30
2022-10-11T16:32:42.206Z,18.24
2022-10-11T16:34:44.677Z,18.18
2022-10-11T16:36:48.907Z,18.07
2022-10-11T16:38:53.243Z,17.95
2022-10-11T16:40:58.521Z,18.07
2022-10-11T16:43:07.945Z,18.19
2022-10-11T16:45:11.790Z,18.02
2022-10-11T16:47:15.845Z,18.12
2022-10-11T16:49:22.079Z,17.94
2022-10-11T16:51:24.900Z,17.86
2022-10-11T16:53:27.487Z,17.85
2022-10-11T16:55:29.781Z,17.88
2022-10-11T16:57:32.043Z,17.89
2022-10-11T16:59:34.737Z,18.02
2022-10-11T17:01:37.038Z,18.06
2022-10-11T17:03:39.673Z,18.12
2022-10-11T17:05:42.179Z,18.03
2022-10-11T17:07:44.574Z,18.09
2022-10-11T17:09:48.744Z,18.02
2022-10-11T17:11:52.154Z,17.93
2022-10-11T17:13:55.559Z,17.96
2022-10-11T17:15:58.352Z,17.95
2022-10-11T17:18:02.910Z,17.94
2022-10-11T17:20:05.623Z,17.98
2022-10-11T17:22:11.794Z,17.93
2022-10-11T17:24:14.320Z,17.87
2022-10-11T17:26:21.041Z,17.92
2022-10-11T17:28:23.968Z,17.93
2022-10-11T17:30:26.577Z,17.77
2022-10-11T17:32:29.007Z,17.61
2022-10-11T17:34:32.075Z,17.65
2022-10-11T17:36:34.849Z,17.74
2022-10-11T17:38:37.142Z,17.76
2022-10-11T17:40:39.365Z,17.68
2022-10-11T17:42:41.949Z,17.71
2022-10-11T17:44:44.327Z,17.39
2022-10-11T17:46:47.598Z,17.38
2022-10-11T17:48:52.389Z,17.29
2022-10-11T17:50:55.138Z,17.25
2022-10-11T17:52:57.818Z,17.20
2022-10-11T17:55:00.611Z,17.13
2022-10-11T17:57:03.315Z,17.23
2022-10-11T17:59:06.738Z,17.24
2022-10-11T18:01:13.134Z,17.26
2022-10-11T18:03:15.648Z,17.15
2022-10-11T18:05:18.050Z,17.14
2022-10-11T18:07:20.465Z,17.20
2022-10-11T18:09:24.777Z,17.18
2022-10-11T18:11:27.120Z,17.16
2022-10-11T18:13:29.901Z,17.14
2022-10-11T18:15:32.829Z,17.21
2022-10-11T18:17:35.137Z,17.17
2022-10-11T18:19:37.836Z,17.20
2022-10-11T18:21:41.176Z,17.06
2022-10-11T18:23:43.766Z,16.94
2022-10-11T18:25:49.273Z,16.84
2022-10-11T18:27:52.990Z,16.89
2022-10-11T18:29:55.671Z,16.88
2022-10-11T18:31:58.325Z,16.78
2022-10-11T18:34:02.240Z,16.68
2022-10-11T18:36:07.644Z,16.75
2022-10-11T18:38:10.327Z,16.85
2022-10-11T18:40:13.001Z,16.81
2022-10-11T18:42:15.698Z,16.77
2022-10-11T18:44:18.462Z,16.84
2022-10-11T18:46:22.404Z,16.78
2022-10-11T18:48:24.816Z,16.77
2022-10-11T18:50:27.522Z,16.75
2022-10-11T18:52:30.458Z,16.74
2022-10-11T18:54:33.130Z,16.72
2022-10-11T18:56:37.077Z,16.82
2022-10-11T18:58:41.069Z,16.89
2022-10-11T19:00:43.657Z,16.84
2022-10-11T19:02:46.700Z,16.79
2022-10-11T19:04:53.010Z,16.68
2022-10-11T19:06:55.458Z,16.74
2022-10-11T19:09:03.872Z,16.73
2022-10-11T19:11:12.849Z,16.79
2022-10-11T19:13:15.439Z,16.69
2022-10-11T19:15:17.718Z,16.78
2022-10-11T19:17:22.891Z,16.73
2022-10-11T19:19:27.645Z,16.68
2022-10-11T19:21:30.388Z,16.70
2022-10-11T19:23:43.610Z,16.61
2022-10-11T19:25:46.256Z,16.55
2022-10-11T19:27:48.625Z,16.43
2022-10-11T19:29:51.188Z,16.32
2022-10-11T19:31:56.656Z,16.20
2022-10-11T19:33:59.094Z,16.27
2022-10-11T19:36:05.121Z,16.20
2022-10-11T19:38:10.127Z,16.43
2022-10-11T19:40:12.883Z,16.55
2022-10-11T19:42:17.718Z,16.59
2022-10-11T19:44:20.588Z,16.58
2022-10-11T19:46:44.525Z,16.63
2022-10-11T19:48:45.390Z,16.60
2022-10-11T19:50:47.651Z,16.71
2022-10-11T19:52:50.270Z,16.69
2022-10-11T19:54:53.342Z,16.65
2022-10-11T19:56:58.061Z,16.63
2022-10-11T19:59:01.347Z,16.29
2022-10-11T20:01:07.477Z,16.10
2022-10-11T20:03:10.211Z,16.14
2022-10-11T20:05:12.865Z,16.24
2022-10-11T20:07:15.212Z,16.24
2022-10-11T20:09:29.095Z,16.34
2022-10-11T20:11:32.606Z,16.39
2022-10-11T20:13:37.251Z,16.45
2022-10-11T20:15:39.975Z,16.40
2022-10-11T20:17:48.349Z,16.41
2022-10-11T20:19:50.754Z,16.33
2022-10-11T20:21:56.686Z,16.37
2022-10-11T20:24:01.677Z,16.32
2022-10-11T20:26:11.219Z,16.20
2022-10-11T20:28:13.880Z,16.26
2022-10-11T20:30:16.296Z,16.26
2022-10-11T20:32:18.529Z,16.13
2022-10-11T20:34:21.010Z,15.94
2022-10-11T20:36:25.284Z,15.80
2022-10-11T20:38:29.270Z,15.81
2022-10-11T20:40:31.974Z,15.62
2022-10-11T20:42:34.200Z,15.57
2022-10-11T20:44:36.421Z,15.52
2022-10-11T20:46:39.502Z,15.51
2022-10-11T20:48:42.349Z,15.50
2022-10-11T20:50:45.324Z,15.46
2022-10-11T20:52:48.113Z,15.50
2022-10-11T20:54:50.400Z,15.63
2022-10-11T20:56:52.647Z,15.62
2022-10-11T20:58:56.642Z,15.51
2022-10-11T21:00:59.088Z,15.60
2022-10-11T21:03:03.884Z,15.59
2022-10-11T21:05:06.981Z,15.51
2022-10-11T21:07:09.255Z,15.41
2022-10-11T21:09:14.033Z,15.30
2022-10-11T21:11:18.914Z,15.34
2022-10-11T21:13:21.616Z,15.33
2022-10-11T21:15:24.131Z,15.27
2022-10-11T21:17:26.644Z,15.41
2022-10-11T21:19:28.908Z,15.36
2022-10-11T21:21:31.350Z,15.31
2022-10-11T21:23:34.599Z,15.37
2022-10-11T21:25:37.769Z,15.39
2022-10-11T21:27:40.344Z,15.38
2022-10-11T21:29:43.777Z,15.40
2022-10-11T21:31:45.978Z,15.24
2022-10-11T21:33:48.700Z,15.18
2022-10-11T21:35:51.209Z,14.95
2022-10-11T21:37:58.145Z,14.81
2022-10-11T21:40:00.354Z,14.85
2022-10-11T21:42:03.168Z,14.83
